Time;durP1;ratioP1;P1;durP2;ratioP2;P2;SDS_P1;SDS_P2;PMS_P1;PMS_P2;Temp;Humidity;BMP_temperature;BMP_pressure;BME280_temperature;BME280_humidity;BME280_pressure;Samples;Min_cycle;Max_cycle;Signal;HPM_P1;HPM_P2
2022/12/09 08:34:58;;;;;;;;;8.00;4.00;;;;;18.89;30.58;100098.31;5058455;28;45430;-47
2022/12/09 08:37:24;;;;;;;;;7.75;6.00;;;;;18.89;30.77;100098.31;5063038;28;45391;-45
2022/12/09 08:39:49;;;;;;;;;5.00;5.00;;;;;18.88;31.11;100091.38;5061299;28;45312;-47
2022/12/09 08:42:14;;;;;;;;;8.00;6.00;;;;;18.86;30.66;100096.69;5060727;28;45981;-44
2022/12/09 08:44:40;;;;;;;;;5.25;5.25;;;;;18.85;31.25;100098.50;5060404;28;45404;-46
2022/12/09 08:47:05;;;;;;;;;7.00;6.25;;;;;18.85;30.63;100101.13;5063794;28;45419;-45
2022/12/09 08:49:30;;;;;;;;;5.50;4.00;;;;;18.85;30.74;100109.00;5074013;28;44880;-47
2022/12/09 08:51:56;;;;;;;;;6.25;6.00;;;;;18.84;30.55;100098.59;5062651;28;45524;-43
2022/12/09 08:54:22;;;;;;;;;7.50;5.25;;;;;18.84;30.59;100102.06;5043945;28;45265;-44
2022/12/09 08:56:50;;;;;;;;;5.25;5.00;;;;;18.83;30.73;100105.63;5062080;28;45294;-46
2022/12/09 08:59:16;;;;;;;;;6.00;6.00;;;;;18.82;30.68;100108.34;5062995;28;45244;-43
2022/12/09 09:01:42;;;;;;;;;6.50;6.50;;;;;18.80;30.74;100110.22;5065859;28;46333;-45
2022/12/09 09:04:11;;;;;;;;;5.00;5.00;;;;;18.79;30.65;100113.75;5071780;28;45373;-44
2022/12/09 09:06:39;;;;;;;;;7.00;5.25;;;;;18.76;30.90;100109.56;5072465;28;45374;-46
2022/12/09 09:09:06;;;;;;;;;8.25;7.00;;;;;18.76;30.58;100104.31;5064677;28;45463;-46
2022/12/09 09:11:32;;;;;;;;;7.75;6.50;;;;;18.74;30.45;100106.16;5071761;28;46210;-45
2022/12/09 09:13:57;;;;;;;;;4.75;4.75;;;;;18.73;30.45;100108.91;5061007;28;45367;-44
2022/12/09 09:16:25;;;;;;;;;10.00;7.00;;;;;18.71;30.57;100106.34;5064895;28;45339;-47
2022/12/09 09:18:50;;;;;;;;;5.25;5.25;;;;;18.68;30.57;100106.53;5068837;28;45217;-44
2022/12/09 09:21:18;;;;;;;;;7.00;7.00;;;;;18.68;30.41;100114.41;5070869;28;46101;-45
2022/12/09 09:23:44;;;;;;;;;8.75;5.25;;;;;18.66;30.29;100105.78;5066971;28;45239;-43
2022/12/09 09:26:18;;;;;;;;;6.00;5.75;;;;;18.65;30.40;100112.78;5072825;28;45228;-44
2022/12/09 09:28:44;;;;;;;;;6.25;5.00;;;;;18.64;30.51;100112.91;5076878;28;45478;-44
2022/12/09 09:31:12;;;;;;;;;7.00;6.25;;;;;18.62;30.79;100117.38;5070178;28;47143;-43
2022/12/09 09:33:37;;;;;;;;;6.50;6.00;;;;;18.61;30.52;100120.94;5067549;28;46260;-44
2022/12/09 09:36:07;;;;;;;;;8.50;5.25;;;;;18.60;30.56;100116.63;5077128;28;45320;-47
2022/12/09 09:38:32;;;;;;;;;7.00;7.00;;;;;18.59;30.46;100114.94;5063217;28;45459;-45
2022/12/09 09:40:59;;;;;;;;;6.00;5.50;;;;;18.60;30.79;100117.50;5060396;28;46064;-44
2022/12/09 09:43:29;;;;;;;;;7.75;7.25;;;;;18.59;30.56;100118.41;5058800;28;45838;-44
2022/12/09 09:45:57;;;;;;;;;9.00;7.00;;;;;18.57;30.43;100116.81;5059352;28;45437;-45
2022/12/09 09:48:30;;;;;;;;;7.50;6.50;;;;;18.57;30.80;100114.19;5059617;28;45304;-44
2022/12/09 09:51:03;;;;;;;;;7.00;6.75;;;;;18.58;30.63;100126.34;5058709;28;45506;-42
2022/12/09 09:53:31;;;;;;;;;7.25;7.25;;;;;18.58;30.44;100118.50;5058751;28;45359;-45
2022/12/09 09:56:22;;;;;;;;;9.00;7.00;;;;;18.58;30.59;100126.34;5064426;28;45462;-47
2022/12/09 09:58:55;;;;;;;;;9.00;7.00;;;;;18.58;30.59;100119.34;5049806;28;59756;-45
2022/12/09 10:01:25;;;;;;;;;8.25;7.00;;;;;18.62;30.91;100117.38;5069059;28;46100;-48
2022/12/09 10:04:19;;;;;;;;;7.00;7.00;;;;;18.64;30.69;100118.16;5067734;28;45830;-43
2022/12/09 10:06:54;;;;;;;;;6.50;6.00;;;;;18.66;30.69;100108.41;5064825;28;45363;-45
2022/12/09 10:09:32;;;;;;;;;7.00;6.00;;;;;18.70;30.59;100104.66;5061110;28;45394;-43
2022/12/09 10:11:57;;;;;;;;;5.25;5.25;;;;;18.75;30.83;100102.59;5059996;28;46261;-46
2022/12/09 10:14:55;;;;;;;;;8.50;6.00;;;;;18.80;30.82;100095.28;5058923;28;45322;-48
2022/12/09 10:17:30;;;;;;;;;7.25;7.25;;;;;18.84;30.67;100095.97;5059236;28;45274;-45
2022/12/09 10:20:19;;;;;;;;;8.50;6.25;;;;;18.89;30.53;100093.91;5059361;28;45254;-44
2022/12/09 10:23:03;;;;;;;;;8.00;7.00;;;;;18.95;30.54;100092.72;5064530;28;46413;-43
2022/12/09 10:25:33;;;;;;;;;4.25;4.25;;;;;18.97;30.58;100093.47;5063911;28;45257;-43
2022/12/09 10:28:22;;;;;;;;;8.75;6.00;;;;;19.00;30.39;100088.88;5063270;28;45209;-45
2022/12/09 10:30:48;;;;;;;;;6.75;6.75;;;;;19.03;30.80;100090.47;5064337;28;45482;-44
2022/12/09 10:33:17;;;;;;;;;7.00;6.00;;;;;19.06;30.83;100090.28;5065987;28;47554;-46
2022/12/09 10:35:43;;;;;;;;;6.00;6.00;;;;;19.08;30.63;100077.91;5052400;28;45244;-43
2022/12/09 10:38:17;;;;;;;;;7.00;5.50;;;;;19.10;30.39;100081.28;5070202;28;45213;-43
2022/12/09 10:40:55;;;;;;;;;9.25;6.00;;;;;19.11;30.23;100080.34;5068050;28;45253;-47
2022/12/09 10:43:34;;;;;;;;;5.75;5.75;;;;;19.12;30.45;100079.41;5065790;28;45403;-47
2022/12/09 10:46:22;;;;;;;;;5.75;5.25;;;;;19.14;30.29;100074.88;5068473;28;45425;-44
2022/12/09 10:48:48;;;;;;;;;7.50;7.50;;;;;19.16;30.50;100075.66;5059472;28;45684;-43
2022/12/09 10:51:13;;;;;;;;;10.67;6.00;;;;;19.17;30.49;100063.38;5059747;28;45199;-45
2022/12/09 10:53:49;;;;;;;;;8.33;7.33;;;;;19.20;30.27;100065.78;5058426;28;46131;-44
2022/12/09 10:56:22;;;;;;;;;7.50;6.50;;;;;19.21;30.53;100069.28;5058928;28;45287;-44
2022/12/09 10:58:47;;;;;;;;;8.00;6.25;;;;;19.21;30.48;100069.28;5061267;28;45245;-44
2022/12/09 11:01:15;;;;;;;;;8.25;6.25;;;;;19.23;30.26;100064.78;5066930;28;45140;-44
2022/12/09 11:03:52;;;;;;;;;6.00;6.00;;;;;19.23;30.28;100062.16;5063292;28;47364;-50
2022/12/09 11:06:28;;;;;;;;;8.25;6.00;;;;;19.22;30.35;100063.91;5063145;28;45399;-45
2022/12/09 11:08:59;;;;;;;;;9.25;8.00;;;;;19.23;30.18;100064.78;5072110;28;45486;-47
2022/12/09 11:11:44;;;;;;;;;7.75;7.75;;;;;19.25;30.53;100062.88;5064934;28;45304;-46
2022/12/09 11:14:49;;;;;;;;;10.00;7.50;;;;;19.23;30.01;100062.16;5059282;28;46013;-44
2022/12/09 11:17:16;;;;;;;;;9.00;6.50;;;;;19.23;30.15;100051.66;5033153;28;45610;-45
2022/12/09 11:19:44;;;;;;;;;5.00;5.00;;;;;19.23;29.87;100056.91;5050799;28;45482;-44
2022/12/09 11:22:23;;;;;;;;;10.25;7.00;;;;;19.21;30.05;100054.34;5065923;28;44928;-46
2022/12/09 11:24:52;;;;;;;;;8.75;6.50;;;;;19.23;29.94;100059.53;5058412;28;46227;-45
2022/12/09 11:27:31;;;;;;;;;8.00;7.00;;;;;19.21;30.07;100045.63;5063890;28;45844;-42
2022/12/09 11:30:14;;;;;;;;;7.50;6.25;;;;;19.21;30.32;100037.75;5060800;28;45450;-44
2022/12/09 11:32:58;;;;;;;;;9.00;9.00;;;;;19.20;30.14;100044.78;5052533;28;45363;-41
2022/12/09 11:35:29;;;;;;;;;9.75;7.00;;;;;19.19;30.38;100040.47;5075021;28;46123;-42
2022/12/09 11:37:57;;;;;;;;;9.50;7.00;;;;;19.19;30.37;100047.50;5062773;28;45158;-44
2022/12/09 11:40:26;;;;;;;;;7.75;7.00;;;;;19.19;30.37;100042.25;5072381;28;45359;-42
2022/12/09 11:42:52;;;;;;;;;12.00;7.00;;;;;19.18;30.02;100036.16;5076649;28;45467;-45
2022/12/09 11:45:39;;;;;;;;;4.00;2.00;;;;;19.16;30.37;100044.13;5061670;28;45240;-44
2022/12/09 11:48:22;;;;;;;;;8.25;7.75;;;;;19.14;30.59;100032.03;5061295;28;45850;-44
2022/12/09 11:50:50;;;;;;;;;6.00;6.00;;;;;19.15;30.28;100037.19;5063664;28;45453;-43
2022/12/09 11:53:39;;;;;;;;;8.25;8.00;;;;;19.13;30.18;100036.44;5061056;28;45653;-47
2022/12/09 11:56:21;;;;;;;;;9.25;7.75;;;;;19.13;30.31;100027.72;5043331;28;46488;-44
2022/12/09 11:58:54;;;;;;;;;9.00;8.50;;;;;19.12;30.12;100029.50;5061765;28;45260;-43
2022/12/09 12:01:23;;;;;;;;;8.50;8.25;;;;;19.12;30.23;100028.66;5062443;28;45254;-44
2022/12/09 12:04:03;;;;;;;;;8.00;7.50;;;;;19.11;30.23;100033.06;5069647;28;45890;-42
2022/12/09 12:06:46;;;;;;;;;9.00;9.00;;;;;19.12;29.99;100028.66;5072074;28;45058;-45
2022/12/09 12:09:28;;;;;;;;;8.75;8.25;;;;;19.11;30.15;100027.81;5067144;28;45905;-43
2022/12/09 12:12:12;;;;;;;;;7.50;7.25;;;;;19.10;30.23;100028.75;5064380;28;45299;-42
2022/12/09 12:14:41;;;;;;;;;12.25;10.25;;;;;19.09;30.17;100026.22;5061581;28;45355;-43
2022/12/09 12:17:25;;;;;;;;;5.75;4.75;;;;;19.08;30.37;100033.25;5061509;28;45487;-45
2022/12/09 12:19:52;;;;;;;;;8.00;8.00;;;;;19.08;30.47;100029.78;5060658;28;45399;-44
2022/12/09 12:22:41;;;;;;;;;7.00;7.00;;;;;19.05;30.55;100033.44;5060878;28;45341;-44
2022/12/09 12:25:34;;;;;;;;;8.00;8.00;;;;;19.06;30.47;100037.75;5060983;28;45381;-45
2022/12/09 12:28:16;;;;;;;;;11.50;8.00;;;;;19.04;30.35;100028.28;5065391;28;47265;-44
2022/12/09 12:30:56;;;;;;;;;11.25;8.75;;;;;19.02;30.53;100020.50;5068350;28;45402;-48
2022/12/09 12:33:40;;;;;;;;;11.75;9.00;;;;;19.02;30.52;100020.50;5063476;28;45158;-48
2022/12/09 12:36:20;;;;;;;;;10.00;9.00;;;;;18.99;30.24;100023.31;5047426;28;45225;-42
2022/12/09 12:38:57;;;;;;;;;9.25;8.50;;;;;18.99;30.51;100025.94;5042389;28;48057;-44
2022/12/09 12:41:41;;;;;;;;;7.25;6.50;;;;;18.98;30.34;100019.84;5075112;28;45355;-46
2022/12/09 12:47:43;;;;;;;;;7.00;7.00;;;;;18.95;30.57;100021.81;5060088;28;45326;-44
2022/12/09 12:50:23;;;;;;;;;11.00;9.25;;;;;18.94;30.58;100018.38;5059431;28;45501;-44
2022/12/09 12:52:54;;;;;;;;;11.25;9.25;;;;;18.94;30.52;100014.88;5059222;28;45395;-44
2022/12/09 12:55:46;;;;;;;;;10.50;9.00;;;;;18.93;30.57;100015.78;5059828;28;45304;-45
2022/12/09 12:58:35;;;;;;;;;8.50;8.50;;;;;18.93;30.39;100021.03;5035142;28;45455;-42
2022/12/09 13:01:12;;;;;;;;;13.00;10.75;;;;;18.90;30.33;100022.06;5059146;28;46164;-44
2022/12/09 13:03:58;;;;;;;;;11.75;11.75;;;;;18.90;30.66;100018.63;5059708;28;45966;-45
2022/12/09 13:06:35;;;;;;;;;11.25;9.25;;;;;18.89;30.65;100023.00;5058865;28;45399;-43
2022/12/09 13:09:08;;;;;;;;;11.50;8.25;;;;;18.87;30.41;100018.78;5069752;28;45310;-43
2022/12/09 13:12:10;;;;;;;;;13.75;10.00;;;;;18.82;30.34;100014.66;5070874;28;45410;-42
2022/12/09 13:14:48;;;;;;;;;13.75;9.50;;;;;18.81;30.53;100012.97;5043803;28;45861;-44
2022/12/09 13:17:14;;;;;;;;;13.50;10.00;;;;;18.78;30.59;100013.19;5066077;28;45335;-44
2022/12/09 13:19:50;;;;;;;;;12.50;9.75;;;;;18.80;30.81;100023.56;5065238;28;45352;-46
2022/12/09 13:22:25;;;;;;;;;12.25;10.25;;;;;18.77;30.65;100016.75;5067974;28;45404;-45
2022/12/09 13:24:51;;;;;;;;;11.25;10.25;;;;;18.78;30.32;100017.56;5065873;28;45791;-46
2022/12/09 13:27:46;;;;;;;;;11.67;10.67;;;;;18.76;30.36;100015.03;5064280;28;45299;-45
2022/12/09 13:30:20;;;;;;;;;10.25;9.50;;;;;18.74;30.64;100011.66;5064147;28;45237;-45
2022/12/09 13:32:52;;;;;;;;;12.50;10.75;;;;;18.74;30.53;100016.09;5076042;28;46102;-43
2022/12/09 13:35:27;;;;;;;;;12.50;11.75;;;;;18.71;30.64;100009.22;5068542;28;45871;-42
2022/12/09 13:37:53;;;;;;;;;9.25;8.75;;;;;18.72;30.55;100010.06;5061155;28;45418;-43
2022/12/09 13:40:35;;;;;;;;;11.50;10.00;;;;;18.70;30.35;100000.50;5061789;28;45479;-44
2022/12/09 13:43:01;;;;;;;;;11.75;10.25;;;;;18.70;30.21;100005.75;5060481;28;46573;-45
2022/12/09 13:45:34;;;;;;;;;8.67;8.67;;;;;18.72;30.25;100007.44;5059794;28;45350;-42
2022/12/09 13:48:06;;;;;;;;;8.75;8.50;;;;;18.72;30.32;100003.03;5059602;28;45399;-46
2022/12/09 13:50:37;;;;;;;;;10.50;9.00;;;;;18.74;30.92;100000.34;5059001;28;45478;-46
2022/12/09 13:53:28;;;;;;;;;14.00;11.25;;;;;18.77;30.58;99993.09;5059402;28;47048;-43
2022/12/09 13:55:58;;;;;;;;;8.50;7.50;;;;;18.81;30.63;99999.00;5075427;28;45836;-41
2022/12/09 13:58:30;;;;;;;;;10.50;8.50;;;;;18.85;30.74;99996.09;5065211;28;45398;-42
2022/12/09 14:01:10;;;;;;;;;12.50;9.00;;;;;18.90;30.81;99997.59;5059388;28;45509;-42
2022/12/09 14:04:20;;;;;;;;;8.50;8.50;;;;;18.93;30.69;99989.53;5056850;28;48060;-44
2022/12/09 14:06:45;;;;;;;;;8.00;7.75;;;;;18.98;30.82;99987.50;5032801;28;45831;-44
2022/12/09 14:09:26;;;;;;;;;11.75;9.75;;;;;19.00;30.44;99986.47;5057072;28;45385;-45
2022/12/09 14:11:56;;;;;;;;;12.25;9.00;;;;;19.06;30.61;99987.03;5059075;28;45543;-46
2022/12/09 14:14:22;;;;;;;;;10.25;7.25;;;;;19.08;30.37;99983.34;5057365;28;45917;-45
2022/12/09 14:16:51;;;;;;;;;11.75;9.25;;;;;19.13;30.21;99996.19;5058679;28;45487;-43
2022/12/09 14:19:22;;;;;;;;;10.00;9.00;;;;;19.14;30.55;99988.22;5058950;28;45352;-43
2022/12/09 14:22:17;;;;;;;;;8.00;8.00;;;;;19.17;30.30;99987.19;5058610;28;45393;-42
2022/12/09 14:24:48;;;;;;;;;11.50;9.75;;;;;19.19;30.26;99989.72;5059795;28;45482;-44
2022/12/09 14:27:27;;;;;;;;;7.00;7.00;;;;;19.21;30.20;99993.09;5068123;28;45221;-44
2022/12/09 14:29:57;;;;;;;;;9.75;7.00;;;;;19.22;30.49;99986.91;5071350;28;45360;-45
2022/12/09 14:32:26;;;;;;;;;7.25;6.50;;;;;19.23;30.53;99991.22;5062558;28;45241;-47
2022/12/09 14:35:09;;;;;;;;;7.00;7.00;;;;;19.26;30.80;100006.78;5061595;28;46392;-45
2022/12/09 14:38:01;;;;;;;;;8.75;8.75;;;;;19.29;30.48;100003.94;5067675;28;45776;-46
2022/12/09 14:40:50;;;;;;;;;9.50;9.50;;;;;19.29;30.65;100009.22;5066353;28;45423;-42
2022/12/09 14:43:30;;;;;;;;;10.25;7.75;;;;;19.30;30.33;100010.91;5065474;28;45251;-44
2022/12/09 14:45:59;;;;;;;;;8.00;7.75;;;;;19.30;30.41;100003.00;5059512;28;46280;-46
2022/12/09 14:48:39;;;;;;;;;11.50;9.50;;;;;19.28;30.13;100004.91;5059152;28;45240;-42
2022/12/09 14:51:18;;;;;;;;;10.75;8.75;;;;;19.30;30.33;100010.91;5059214;28;45461;-42
2022/12/09 14:53:50;;;;;;;;;11.75;8.50;;;;;19.31;30.49;100009.97;5068429;28;45417;-43
2022/12/09 14:56:18;;;;;;;;;12.25;8.25;;;;;19.27;30.67;100006.69;5068010;28;45325;-44
2022/12/09 14:58:55;;;;;;;;;11.25;9.25;;;;;19.28;30.05;100015.41;5058262;28;45239;-43
2022/12/09 15:01:21;;;;;;;;;7.50;7.50;;;;;19.26;30.50;100012.03;5057678;28;45331;-46
2022/12/09 15:04:04;;;;;;;;;8.25;8.00;;;;;19.28;30.06;100015.41;5057476;28;45676;-42
2022/12/09 15:06:30;;;;;;;;;9.00;7.75;;;;;19.27;30.62;100022.47;5057466;28;49765;-45
2022/12/09 15:08:57;;;;;;;;;8.00;7.00;;;;;19.24;29.97;100014.75;5060344;28;45191;-43
2022/12/09 15:11:34;;;;;;;;;9.50;8.00;;;;;19.25;30.04;100028.72;5059011;28;45416;-44
2022/12/09 15:16:50;;;;;;;;;10.00;7.50;;;;;19.24;30.14;100027.88;5067981;28;45451;-43
2022/12/09 15:19:19;;;;;;;;;2.00;1.00;;;;;19.22;30.05;100027.13;5063632;28;45335;-43
2022/12/09 15:21:46;;;;;;;;;9.00;7.00;;;;;19.22;30.52;100028.94;5069523;28;45284;-45
2022/12/09 15:24:14;;;;;;;;;9.75;8.00;;;;;19.21;30.34;100035.13;5069607;28;45682;-44
2022/12/09 15:26:39;;;;;;;;;8.00;8.00;;;;;19.20;30.06;100034.25;5065717;28;46177;-47
2022/12/09 15:29:05;;;;;;;;;9.00;7.25;;;;;19.19;30.10;100031.75;5065211;28;45213;-46
2022/12/09 15:31:32;;;;;;;;;11.75;9.00;;;;;19.16;30.21;100023.13;5076235;28;45221;-45
2022/12/09 15:34:00;;;;;;;;;9.50;7.00;;;;;19.17;30.42;100029.22;5064101;28;45190;-47
2022/12/09 15:36:35;;;;;;;;;7.00;7.00;;;;;19.15;30.01;100026.69;5058576;28;48147;-42
2022/12/09 15:39:06;;;;;;;;;9.50;8.00;;;;;19.15;30.27;100031.94;5059210;28;45268;-44
2022/12/09 15:44:23;;;;;;;;;8.00;7.25;;;;;19.13;30.39;100038.22;5064396;28;45165;-44
2022/12/09 15:46:52;;;;;;;;;7.75;7.00;;;;;19.11;30.23;100035.69;5070881;28;45871;-45
2022/12/09 15:49:23;;;;;;;;;7.25;5.25;;;;;19.10;29.82;100034.00;5073740;28;45104;-44
2022/12/09 15:51:53;;;;;;;;;8.00;7.00;;;;;19.08;30.44;100041.13;5072854;28;45399;-45
2022/12/09 15:54:25;;;;;;;;;8.50;7.50;;;;;19.08;30.09;100043.75;5073248;28;45253;-45
2022/12/09 15:57:00;;;;;;;;;10.25;8.00;;;;;19.07;30.38;100047.31;5073291;28;45253;-43
2022/12/09 15:59:37;;;;;;;;;7.50;6.50;;;;;19.04;30.17;100042.25;5071383;28;45320;-46
2022/12/09 16:02:03;;;;;;;;;8.00;7.00;;;;;19.04;30.40;100044.88;5039708;28;45386;-45
2022/12/09 16:04:33;;;;;;;;;10.25;9.75;;;;;19.04;30.21;100055.38;5056725;28;45506;-44
2022/12/09 16:07:07;;;;;;;;;5.00;5.00;;;;;19.01;30.40;100045.09;5056390;28;45368;-46
2022/12/09 16:09:32;;;;;;;;;11.00;7.75;;;;;19.00;30.32;100054.72;5067010;28;45447;-43
2022/12/09 16:11:58;;;;;;;;;8.75;8.00;;;;;18.99;30.27;100052.22;5076212;28;45186;-44
2022/12/09 16:14:24;;;;;;;;;10.25;8.75;;;;;18.99;30.40;100052.22;5070052;28;45856;-42
2022/12/09 16:16:55;;;;;;;;;12.00;10.50;;;;;18.98;30.24;100053.16;5058648;28;46913;-44
2022/12/09 16:19:42;;;;;;;;;9.00;8.25;;;;;18.98;30.38;100053.16;5060558;28;45389;-43
2022/12/09 16:22:21;;;;;;;;;7.75;7.00;;;;;18.96;30.34;100047.13;5057422;28;44707;-42
2022/12/09 16:24:50;;;;;;;;;7.00;7.00;;;;;18.96;30.39;100052.41;5068708;28;45249;-43
2022/12/09 16:27:20;;;;;;;;;7.75;7.75;;;;;18.94;30.16;100043.75;5060205;28;46750;-45
2022/12/09 16:30:00;;;;;;;;;8.25;8.25;;;;;18.92;30.33;100041.22;5059967;28;45376;-44
2022/12/09 16:32:29;;;;;;;;;6.75;6.00;;;;;18.90;30.46;100045.69;5068862;28;45347;-44
2022/12/09 16:35:19;;;;;;;;;10.50;8.75;;;;;18.89;30.58;100040.56;5070084;28;45288;-44
2022/12/09 16:37:56;;;;;;;;;7.00;7.00;;;;;18.89;30.33;100045.81;5060186;28;46300;-44
2022/12/09 16:40:24;;;;;;;;;6.75;6.50;;;;;18.86;30.47;100052.06;5063530;28;45442;-44
2022/12/09 16:42:52;;;;;;;;;9.00;9.00;;;;;18.84;30.21;100046.91;5068838;28;45687;-42
2022/12/09 16:45:32;;;;;;;;;10.00;9.00;;;;;18.83;30.28;100058.34;5076133;28;45333;-44
2022/12/09 16:47:58;;;;;;;;;8.50;8.50;;;;;18.81;30.28;100054.97;5078286;28;45134;-42
2022/12/09 16:50:34;;;;;;;;;9.50;8.00;;;;;18.81;30.35;100057.59;5066338;28;45237;-46
2022/12/09 16:53:01;;;;;;;;;8.00;8.00;;;;;18.79;30.42;100056.88;5061406;28;45343;-45
2022/12/09 16:55:28;;;;;;;;;10.00;8.00;;;;;18.77;30.55;100053.50;5060697;28;45244;-43
2022/12/09 16:57:56;;;;;;;;;8.25;8.00;;;;;18.78;30.56;100060.44;5059622;28;46626;-42
2022/12/09 17:00:22;;;;;;;;;11.50;7.25;;;;;18.77;30.50;100064.00;5059785;28;45310;-43
2022/12/09 17:02:51;;;;;;;;;11.50;8.25;;;;;18.76;30.13;100058.81;5060274;28;45496;-44
2022/12/09 17:05:16;;;;;;;;;10.50;9.50;;;;;18.75;30.26;100065.84;5025944;28;45487;-41
2022/12/09 17:07:42;;;;;;;;;8.25;7.75;;;;;18.75;30.33;100060.59;5059001;28;46967;-42
2022/12/09 17:10:08;;;;;;;;;7.50;7.50;;;;;18.75;30.37;100073.72;5061672;28;45365;-45
2022/12/09 17:12:34;;;;;;;;;11.75;7.75;;;;;18.74;30.45;100084.34;5061812;28;45470;-44
2022/12/09 17:14:59;;;;;;;;;8.25;7.25;;;;;18.72;30.26;100084.41;5063654;28;45668;-44
2022/12/09 17:17:24;;;;;;;;;8.50;7.50;;;;;18.72;30.39;100078.31;5073280;28;46132;-44
2022/12/09 17:19:50;;;;;;;;;8.00;8.00;;;;;18.70;30.39;100081.03;5072695;28;45350;-43
2022/12/09 17:22:16;;;;;;;;;7.25;6.50;;;;;18.68;30.48;100086.38;5068741;28;44859;-45
2022/12/09 17:24:41;;;;;;;;;9.00;7.75;;;;;18.68;30.38;100096.88;5064071;28;45423;-48
2022/12/09 17:27:07;;;;;;;;;8.75;6.75;;;;;18.69;30.71;100095.06;5078559;28;46037;-44
2022/12/09 17:29:32;;;;;;;;;10.00;8.75;;;;;18.68;30.41;100090.78;5078397;28;44725;-46
2022/12/09 17:31:57;;;;;;;;;7.50;7.50;;;;;18.70;30.27;100095.00;5074298;28;45346;-45
2022/12/09 17:34:23;;;;;;;;;8.50;8.50;;;;;18.72;30.39;100094.91;5075512;28;45134;-48
2022/12/09 17:36:48;;;;;;;;;7.00;7.00;;;;;18.74;30.81;100100.91;5064589;28;47785;-44
2022/12/09 17:39:14;;;;;;;;;8.50;7.50;;;;;18.76;30.64;100106.94;5058855;28;45186;-44
2022/12/09 17:41:41;;;;;;;;;11.25;8.25;;;;;18.81;30.75;100102.22;5058480;28;45549;-42
2022/12/09 17:44:07;;;;;;;;;8.00;7.00;;;;;18.85;30.67;100102.91;5059384;28;45541;-46
2022/12/09 17:46:32;;;;;;;;;10.00;7.50;;;;;18.88;30.81;100107.97;5062313;28;47087;-43
2022/12/09 17:48:59;;;;;;;;;8.50;8.50;;;;;18.91;30.52;100106.94;5065883;28;45352;-42
2022/12/09 17:51:24;;;;;;;;;7.00;7.00;;;;;18.94;30.53;100117.28;5065507;28;45490;-42
2022/12/09 17:53:50;;;;;;;;;8.75;6.75;;;;;19.00;30.95;100111.69;5063821;28;45503;-42
2022/12/09 17:56:19;;;;;;;;;9.50;9.50;;;;;19.01;30.61;100118.63;5068526;28;46291;-42
2022/12/09 17:58:45;;;;;;;;;9.00;7.25;;;;;19.04;30.78;100118.41;5076126;28;45323;-47
2022/12/09 18:01:16;;;;;;;;;8.00;8.00;;;;;19.07;30.54;100117.41;5059602;28;45315;-47
2022/12/09 18:03:42;;;;;;;;;7.25;7.25;;;;;19.10;30.72;100117.19;5059759;28;45324;-45
2022/12/09 18:06:08;;;;;;;;;9.75;7.00;;;;;19.12;30.69;100116.19;5057817;28;46041;-42
2022/12/09 18:08:35;;;;;;;;;9.25;8.75;;;;;19.12;30.54;100116.19;5058548;28;45803;-44
2022/12/09 18:11:05;;;;;;;;;10.00;7.75;;;;;19.14;30.34;100119.53;5073018;28;45213;-43
2022/12/09 18:13:31;;;;;;;;;8.00;8.00;;;;;19.15;30.38;100121.25;5076653;28;44888;-43
2022/12/09 18:15:57;;;;;;;;;10.00;8.00;;;;;19.16;30.42;100111.59;5075387;28;45722;-43
2022/12/09 18:18:22;;;;;;;;;7.25;7.25;;;;;19.17;30.44;100115.91;5060247;28;45455;-48
2022/12/09 18:20:48;;;;;;;;;11.25;7.00;;;;;19.19;30.42;100121.06;5064190;28;45311;-48
2022/12/09 18:23:13;;;;;;;;;6.25;6.25;;;;;19.20;30.58;100123.59;5041188;28;45320;-46
2022/12/09 18:25:40;;;;;;;;;11.00;7.75;;;;;19.21;30.40;100124.44;5064216;28;45991;-41
2022/12/09 18:28:06;;;;;;;;;9.00;7.75;;;;;19.21;30.46;100121.81;5067635;28;45350;-45
2022/12/09 18:30:32;;;;;;;;;8.25;8.00;;;;;19.20;30.61;100120.13;5065604;28;45337;-45
2022/12/09 18:32:58;;;;;;;;;7.25;7.25;;;;;19.24;30.75;100124.22;5058672;28;45513;-45
2022/12/09 18:35:23;;;;;;;;;8.50;8.00;;;;;19.25;30.13;100121.53;5057933;28;46176;-45
2022/12/09 18:37:48;;;;;;;;;9.00;9.00;;;;;19.23;30.27;100117.31;5057487;28;45489;-45
2022/12/09 18:40:19;;;;;;;;;8.50;8.50;;;;;19.23;30.53;100122.56;5057721;28;45336;-45
2022/12/09 18:42:48;;;;;;;;;9.50;8.25;;;;;19.23;30.25;100123.41;5056691;28;45564;-46
2022/12/09 18:45:13;;;;;;;;;8.25;8.25;;;;;19.23;30.45;100130.47;5057245;28;46906;-42
2022/12/09 18:47:39;;;;;;;;;12.50;9.00;;;;;19.22;30.13;100136.66;5058880;28;45463;-47
2022/12/09 18:50:04;;;;;;;;;9.25;9.25;;;;;19.20;30.49;100133.25;5060767;28;45372;-46
2022/12/09 18:52:30;;;;;;;;;10.00;8.75;;;;;19.21;30.24;100137.59;5063036;28;45236;-44
2022/12/09 18:54:55;;;;;;;;;11.75;9.00;;;;;19.21;30.80;100140.22;5062751;28;46539;-43
2022/12/09 18:57:21;;;;;;;;;10.75;8.00;;;;;19.20;30.59;100143.78;5059820;28;45273;-42
2022/12/09 18:59:49;;;;;;;;;9.25;9.25;;;;;19.19;30.25;100147.31;5057889;28;45381;-45
2022/12/09 19:02:15;;;;;;;;;8.00;8.00;;;;;19.19;30.46;100147.31;5058184;28;45307;-44
2022/12/09 19:04:41;;;;;;;;;10.50;8.75;;;;;19.18;30.59;100149.13;5062688;28;47428;-44
2022/12/09 19:07:07;;;;;;;;;12.00;10.75;;;;;19.18;30.23;100150.88;5069563;28;44679;-45
2022/12/09 19:09:34;;;;;;;;;7.75;7.75;;;;;19.16;30.58;100157.09;5041674;28;45296;-48
2022/12/09 19:12:02;;;;;;;;;10.75;7.75;;;;;19.15;30.53;100158.00;5057888;28;45418;-47
2022/12/09 19:14:30;;;;;;;;;11.00;9.50;;;;;19.14;30.45;100151.06;5061465;28;46120;-46
2022/12/09 19:16:56;;;;;;;;;10.25;10.25;;;;;19.12;30.79;100150.34;5062311;28;45883;-49
2022/12/09 19:19:24;;;;;;;;;10.75;9.50;;;;;19.11;30.11;100151.28;5064798;28;45256;-42
2022/12/09 19:21:51;;;;;;;;;10.50;10.50;;;;;19.12;30.55;100154.72;5057520;28;45553;-47
2022/12/09 19:24:23;;;;;;;;;11.75;9.00;;;;;19.11;30.22;100159.16;5061941;28;46893;-44
2022/12/09 19:26:50;;;;;;;;;11.50;11.00;;;;;19.07;30.51;100149.75;5068745;28;45367;-44
2022/12/09 19:29:19;;;;;;;;;10.50;10.50;;;;;19.08;30.18;100156.72;5070212;28;45286;-44
2022/12/09 19:31:47;;;;;;;;;10.25;10.25;;;;;19.08;30.78;100156.72;5060004;28;45820;-44
2022/12/09 19:34:15;;;;;;;;;10.25;10.25;;;;;19.06;30.48;100153.31;5039388;28;45279;-42
2022/12/09 19:36:42;;;;;;;;;9.25;9.25;;;;;19.04;30.40;100149.94;5056993;28;45332;-44
2022/12/09 19:39:08;;;;;;;;;11.25;9.50;;;;;19.04;30.39;100151.72;5056501;28;45336;-43
2022/12/09 19:41:35;;;;;;;;;9.50;8.50;;;;;19.03;30.28;100156.13;5056556;28;45330;-47
2022/12/09 19:44:02;;;;;;;;;13.00;10.25;;;;;19.02;30.83;100157.06;5058970;28;46175;-44
2022/12/09 19:46:28;;;;;;;;;12.25;11.00;;;;;19.01;30.33;100163.28;5058854;28;45423;-44
2022/12/09 19:48:54;;;;;;;;;13.50;8.75;;;;;18.98;30.35;100166.91;5056764;28;45392;-42
2022/12/09 19:51:21;;;;;;;;;12.25;10.00;;;;;18.99;30.34;100173.00;5057360;28;45533;-43
2022/12/09 19:53:47;;;;;;;;;12.75;10.00;;;;;18.98;30.31;100177.41;5060046;28;46347;-46
2022/12/09 19:56:15;;;;;;;;;10.75;10.75;;;;;18.98;30.31;100181.81;5059145;28;45925;-44
2022/12/09 19:58:42;;;;;;;;;9.50;9.50;;;;;18.96;30.46;100181.06;5061510;28;45319;-43
2022/12/09 20:01:10;;;;;;;;;9.00;9.00;;;;;18.96;30.39;100181.06;5044170;28;45349;-45
2022/12/09 20:03:40;;;;;;;;;12.50;11.25;;;;;18.95;30.72;100187.25;5066820;28;45785;-43
2022/12/09 20:06:08;;;;;;;;;12.50;11.25;;;;;18.91;30.53;100188.31;5064477;28;45253;-44
2022/12/09 20:08:34;;;;;;;;;11.00;11.00;;;;;18.93;30.44;100192.59;5074078;28;44738;-46
2022/12/09 20:10:59;;;;;;;;;9.75;9.75;;;;;18.90;30.55;100194.53;5071359;28;44742;-44
2022/12/09 20:13:25;;;;;;;;;12.50;10.00;;;;;18.90;30.33;100194.53;5065476;28;46239;-42
2022/12/09 20:15:50;;;;;;;;;10.75;9.50;;;;;18.88;30.52;100193.78;5061318;28;45452;-46
2022/12/09 20:18:15;;;;;;;;;11.50;10.00;;;;;18.87;30.56;100195.53;5061014;28;45486;-45
2022/12/09 20:20:41;;;;;;;;;13.00;12.25;;;;;18.85;30.33;100197.44;5061844;28;45398;-43
2022/12/09 20:23:06;;;;;;;;;11.50;10.25;;;;;18.81;30.60;100186.25;5062462;28;46203;-43
2022/12/09 20:25:33;;;;;;;;;12.00;9.75;;;;;18.81;30.65;100201.16;5063121;28;45264;-42